sensor_id;sensor_type;location;lat;lon;timestamp;pressure;altitude;pressure_sealevel;temperature;humidity
79376;BME280;68846;53.150;18.136;2024-02-26T00:00:28;100181.02;;;3.52;82.39
79376;BME280;68846;53.150;18.136;2024-02-26T00:03:16;100182.13;;;3.48;82.42
79376;BME280;68846;53.150;18.136;2024-02-26T00:05:44;100181.70;;;3.46;82.51
79376;BME280;68846;53.150;18.136;2024-02-26T00:08:12;100178.71;;;3.45;82.44
79376;BME280;68846;53.150;18.136;2024-02-26T00:10:40;100180.80;;;3.44;82.44
79376;BME280;68846;53.150;18.136;2024-02-26T00:13:08;100178.48;;;3.43;82.43
79376;BME280;68846;53.150;18.136;2024-02-26T00:15:35;100177.73;;;3.41;82.34
79376;BME280;68846;53.150;18.136;2024-02-26T00:18:04;100183.20;;;3.38;82.28
79376;BME280;68846;53.150;18.136;2024-02-26T00:20:32;100186.79;;;3.31;82.27
79376;BME280;68846;53.150;18.136;2024-02-26T00:23:01;100188.92;;;3.26;82.49
79376;BME280;68846;53.150;18.136;2024-02-26T00:25:29;100182.41;;;3.24;82.45
79376;BME280;68846;53.150;18.136;2024-02-26T00:27:57;100183.13;;;3.25;82.54
79376;BME280;68846;53.150;18.136;2024-02-26T00:30:25;100184.53;;;3.25;82.49
79376;BME280;68846;53.150;18.136;2024-02-26T00:32:53;100180.23;;;3.27;82.26
79376;BME280;68846;53.150;18.136;2024-02-26T00:35:20;100180.02;;;3.26;82.10
79376;BME280;68846;53.150;18.136;2024-02-26T00:37:48;100174.43;;;3.25;81.79
79376;BME280;68846;53.150;18.136;2024-02-26T00:40:16;100167.15;;;3.20;81.74
79376;BME280;68846;53.150;18.136;2024-02-26T00:42:44;100168.73;;;3.15;81.79
79376;BME280;68846;53.150;18.136;2024-02-26T00:45:14;100169.04;;;3.09;81.98
79376;BME280;68846;53.150;18.136;2024-02-26T00:47:42;100169.98;;;3.06;82.12
79376;BME280;68846;53.150;18.136;2024-02-26T00:50:12;100170.17;;;3.02;81.76
79376;BME280;68846;53.150;18.136;2024-02-26T00:52:41;100167.62;;;2.98;81.91
79376;BME280;68846;53.150;18.136;2024-02-26T00:55:09;100167.91;;;2.95;82.01
79376;BME280;68846;53.150;18.136;2024-02-26T00:57:37;100166.44;;;2.93;81.98
79376;BME280;68846;53.150;18.136;2024-02-26T01:00:06;100166.67;;;2.90;81.51
79376;BME280;68846;53.150;18.136;2024-02-26T01:02:36;100166.88;;;2.86;81.49
79376;BME280;68846;53.150;18.136;2024-02-26T01:05:05;100170.77;;;2.82;81.62
79376;BME280;68846;53.150;18.136;2024-02-26T01:07:33;100171.74;;;2.81;81.40
79376;BME280;68846;53.150;18.136;2024-02-26T01:10:03;100169.75;;;2.78;81.40
79376;BME280;68846;53.150;18.136;2024-02-26T01:12:36;100174.02;;;2.76;81.27
79376;BME280;68846;53.150;18.136;2024-02-26T01:15:04;100175.16;;;2.74;81.03
79376;BME280;68846;53.150;18.136;2024-02-26T01:17:32;100177.77;;;2.69;80.89
79376;BME280;68846;53.150;18.136;2024-02-26T01:20:00;100179.73;;;2.64;81.28
79376;BME280;68846;53.150;18.136;2024-02-26T01:22:29;100173.36;;;2.62;81.39
79376;BME280;68846;53.150;18.136;2024-02-26T01:24:57;100180.66;;;2.56;81.32
79376;BME280;68846;53.150;18.136;2024-02-26T01:27:26;100182.40;;;2.52;81.61
79376;BME280;68846;53.150;18.136;2024-02-26T01:29:54;100183.21;;;2.50;82.06
79376;BME280;68846;53.150;18.136;2024-02-26T01:32:22;100182.48;;;2.54;81.84
79376;BME280;68846;53.150;18.136;2024-02-26T01:34:50;100180.15;;;2.57;81.97
79376;BME280;68846;53.150;18.136;2024-02-26T01:37:18;100177.63;;;2.59;82.05
79376;BME280;68846;53.150;18.136;2024-02-26T01:39:46;100174.89;;;2.60;81.97
79376;BME280;68846;53.150;18.136;2024-02-26T01:42:14;100173.95;;;2.64;82.33
79376;BME280;68846;53.150;18.136;2024-02-26T01:44:41;100178.11;;;2.68;82.23
79376;BME280;68846;53.150;18.136;2024-02-26T01:47:11;100181.73;;;2.73;82.17
79376;BME280;68846;53.150;18.136;2024-02-26T01:49:40;100186.38;;;2.76;82.30
79376;BME280;68846;53.150;18.136;2024-02-26T01:52:09;100186.29;;;2.79;82.15
79376;BME280;68846;53.150;18.136;2024-02-26T01:54:40;100183.98;;;2.82;82.09
79376;BME280;68846;53.150;18.136;2024-02-26T01:57:58;100184.83;;;2.82;81.77
79376;BME280;68846;53.150;18.136;2024-02-26T02:00:26;100185.46;;;2.80;82.11
79376;BME280;68846;53.150;18.136;2024-02-26T02:02:54;100187.86;;;2.79;82.44
79376;BME280;68846;53.150;18.136;2024-02-26T02:05:23;100187.30;;;2.78;82.49
79376;BME280;68846;53.150;18.136;2024-02-26T02:07:52;100192.59;;;2.80;82.77
79376;BME280;68846;53.150;18.136;2024-02-26T02:10:21;100197.74;;;2.82;82.43
79376;BME280;68846;53.150;18.136;2024-02-26T02:12:53;100192.41;;;2.85;82.30
79376;BME280;68846;53.150;18.136;2024-02-26T02:15:20;100191.45;;;2.87;82.44
79376;BME280;68846;53.150;18.136;2024-02-26T02:17:49;100191.88;;;2.89;82.18
79376;BME280;68846;53.150;18.136;2024-02-26T02:20:18;100189.63;;;2.90;81.93
79376;BME280;68846;53.150;18.136;2024-02-26T02:22:46;100188.73;;;2.89;81.92
79376;BME280;68846;53.150;18.136;2024-02-26T02:25:14;100189.81;;;2.85;81.72
79376;BME280;68846;53.150;18.136;2024-02-26T02:27:42;100185.84;;;2.81;81.72
79376;BME280;68846;53.150;18.136;2024-02-26T02:30:11;100186.41;;;2.77;81.84
79376;BME280;68846;53.150;18.136;2024-02-26T02:32:40;100181.15;;;2.76;81.75
79376;BME280;68846;53.150;18.136;2024-02-26T02:35:09;100177.32;;;2.76;81.91
79376;BME280;68846;53.150;18.136;2024-02-26T02:37:37;100176.49;;;2.77;81.73
79376;BME280;68846;53.150;18.136;2024-02-26T02:40:06;100177.38;;;2.78;81.92
79376;BME280;68846;53.150;18.136;2024-02-26T02:42:34;100182.76;;;2.77;81.99
79376;BME280;68846;53.150;18.136;2024-02-26T02:45:02;100184.98;;;2.76;81.73
79376;BME280;68846;53.150;18.136;2024-02-26T02:47:29;100186.46;;;2.74;81.86
79376;BME280;68846;53.150;18.136;2024-02-26T02:49:57;100187.48;;;2.73;81.77
79376;BME280;68846;53.150;18.136;2024-02-26T02:52:25;100186.73;;;2.71;81.69
79376;BME280;68846;53.150;18.136;2024-02-26T02:54:53;100190.83;;;2.69;81.49
79376;BME280;68846;53.150;18.136;2024-02-26T02:57:21;100187.39;;;2.65;81.63
79376;BME280;68846;53.150;18.136;2024-02-26T02:59:49;100187.91;;;2.60;81.50
79376;BME280;68846;53.150;18.136;2024-02-26T03:02:17;100195.44;;;2.57;81.52
79376;BME280;68846;53.150;18.136;2024-02-26T03:04:46;100195.20;;;2.55;81.89
79376;BME280;68846;53.150;18.136;2024-02-26T03:07:13;100196.39;;;2.54;81.47
79376;BME280;68846;53.150;18.136;2024-02-26T03:09:41;100192.39;;;2.49;81.50
79376;BME280;68846;53.150;18.136;2024-02-26T03:12:09;100197.14;;;2.46;81.30
79376;BME280;68846;53.150;18.136;2024-02-26T03:14:37;100197.17;;;2.42;81.44
79376;BME280;68846;53.150;18.136;2024-02-26T03:17:05;100196.08;;;2.40;81.44
79376;BME280;68846;53.150;18.136;2024-02-26T03:19:32;100193.17;;;2.37;81.48
79376;BME280;68846;53.150;18.136;2024-02-26T03:22:00;100190.20;;;2.32;81.09
79376;BME280;68846;53.150;18.136;2024-02-26T03:24:28;100192.80;;;2.27;81.23
79376;BME280;68846;53.150;18.136;2024-02-26T03:26:56;100192.67;;;2.23;81.18
79376;BME280;68846;53.150;18.136;2024-02-26T03:29:25;100191.86;;;2.20;81.10
79376;BME280;68846;53.150;18.136;2024-02-26T03:31:53;100189.59;;;2.14;80.78
79376;BME280;68846;53.150;18.136;2024-02-26T03:34:21;100187.41;;;2.08;81.14
79376;BME280;68846;53.150;18.136;2024-02-26T03:36:48;100191.69;;;2.05;81.05
79376;BME280;68846;53.150;18.136;2024-02-26T03:39:41;100194.08;;;2.04;81.03
79376;BME280;68846;53.150;18.136;2024-02-26T03:42:09;100198.02;;;2.03;81.45
79376;BME280;68846;53.150;18.136;2024-02-26T03:49:34;100200.19;;;2.01;82.09
79376;BME280;68846;53.150;18.136;2024-02-26T03:52:02;100195.73;;;2.02;82.27
79376;BME280;68846;53.150;18.136;2024-02-26T03:54:30;100196.95;;;2.07;82.59
79376;BME280;68846;53.150;18.136;2024-02-26T03:56:58;100203.88;;;2.11;82.69
79376;BME280;68846;53.150;18.136;2024-02-26T03:59:28;100207.36;;;2.11;82.66
79376;BME280;68846;53.150;18.136;2024-02-26T04:01:56;100204.72;;;2.06;82.94
79376;BME280;68846;53.150;18.136;2024-02-26T04:04:24;100201.95;;;2.02;83.42
79376;BME280;68846;53.150;18.136;2024-02-26T04:06:51;100200.57;;;2.02;83.69
79376;BME280;68846;53.150;18.136;2024-02-26T04:09:19;100199.52;;;2.02;83.64
79376;BME280;68846;53.150;18.136;2024-02-26T04:11:47;100200.08;;;2.03;83.90
79376;BME280;68846;53.150;18.136;2024-02-26T04:14:15;100197.44;;;2.02;84.14
79376;BME280;68846;53.150;18.136;2024-02-26T04:16:43;100194.50;;;2.02;84.14
79376;BME280;68846;53.150;18.136;2024-02-26T04:19:10;100195.86;;;2.01;84.33
79376;BME280;68846;53.150;18.136;2024-02-26T04:21:41;100192.73;;;2.01;84.42
79376;BME280;68846;53.150;18.136;2024-02-26T04:24:10;100190.77;;;2.04;84.68
79376;BME280;68846;53.150;18.136;2024-02-26T04:26:37;100191.91;;;2.11;84.68
79376;BME280;68846;53.150;18.136;2024-02-26T04:29:05;100193.02;;;2.18;84.51
79376;BME280;68846;53.150;18.136;2024-02-26T04:31:34;100197.21;;;2.23;84.39
79376;BME280;68846;53.150;18.136;2024-02-26T04:34:02;100200.84;;;2.28;84.25
79376;BME280;68846;53.150;18.136;2024-02-26T04:36:29;100201.69;;;2.32;84.39
79376;BME280;68846;53.150;18.136;2024-02-26T04:38:57;100202.02;;;2.37;84.46
79376;BME280;68846;53.150;18.136;2024-02-26T04:41:25;100202.52;;;2.40;84.13
79376;BME280;68846;53.150;18.136;2024-02-26T04:43:54;100202.23;;;2.42;84.13
79376;BME280;68846;53.150;18.136;2024-02-26T04:46:21;100202.61;;;2.44;84.52
79376;BME280;68846;53.150;18.136;2024-02-26T04:48:49;100203.73;;;2.46;84.38
79376;BME280;68846;53.150;18.136;2024-02-26T04:51:17;100206.00;;;2.51;84.26
79376;BME280;68846;53.150;18.136;2024-02-26T04:53:45;100205.96;;;2.54;84.08
79376;BME280;68846;53.150;18.136;2024-02-26T04:56:13;100205.19;;;2.57;83.77
79376;BME280;68846;53.150;18.136;2024-02-26T04:58:40;100204.39;;;2.59;83.77
79376;BME280;68846;53.150;18.136;2024-02-26T05:01:09;100207.90;;;2.60;83.86
79376;BME280;68846;53.150;18.136;2024-02-26T05:03:38;100210.33;;;2.59;83.78
79376;BME280;68846;53.150;18.136;2024-02-26T05:06:06;100215.33;;;2.59;83.72
79376;BME280;68846;53.150;18.136;2024-02-26T05:08:34;100215.13;;;2.58;83.64
79376;BME280;68846;53.150;18.136;2024-02-26T05:11:04;100221.23;;;2.54;83.43
79376;BME280;68846;53.150;18.136;2024-02-26T05:13:32;100216.50;;;2.47;83.46
79376;BME280;68846;53.150;18.136;2024-02-26T05:16:00;100226.89;;;2.46;83.79
79376;BME280;68846;53.150;18.136;2024-02-26T05:18:28;100230.99;;;2.46;83.66
79376;BME280;68846;53.150;18.136;2024-02-26T05:20:56;100235.15;;;2.45;83.77
79376;BME280;68846;53.150;18.136;2024-02-26T05:23:23;100237.80;;;2.46;83.63
79376;BME280;68846;53.150;18.136;2024-02-26T05:25:51;100240.95;;;2.46;83.51
79376;BME280;68846;53.150;18.136;2024-02-26T05:28:19;100241.06;;;2.44;83.22
79376;BME280;68846;53.150;18.136;2024-02-26T05:31:14;100247.58;;;2.42;83.50
79376;BME280;68846;53.150;18.136;2024-02-26T05:33:42;100246.69;;;2.41;83.44
79376;BME280;68846;53.150;18.136;2024-02-26T05:36:17;100249.98;;;2.41;83.29
79376;BME280;68846;53.150;18.136;2024-02-26T05:39:01;100248.15;;;2.39;83.05
79376;BME280;68846;53.150;18.136;2024-02-26T05:41:29;100247.78;;;2.29;82.74
79376;BME280;68846;53.150;18.136;2024-02-26T05:43:58;100255.96;;;2.20;83.14
79376;BME280;68846;53.150;18.136;2024-02-26T05:46:26;100262.16;;;2.09;83.08
79376;BME280;68846;53.150;18.136;2024-02-26T05:48:54;100262.63;;;2.03;83.36
79376;BME280;68846;53.150;18.136;2024-02-26T05:51:22;100260.55;;;1.94;83.16
79376;BME280;68846;53.150;18.136;2024-02-26T05:53:50;100263.60;;;1.88;83.31
79376;BME280;68846;53.150;18.136;2024-02-26T05:56:22;100268.14;;;1.84;83.86
79376;BME280;68846;53.150;18.136;2024-02-26T05:58:50;100274.98;;;1.86;83.92
79376;BME280;68846;53.150;18.136;2024-02-26T06:01:19;100275.25;;;1.88;83.82
79376;BME280;68846;53.150;18.136;2024-02-26T06:03:49;100281.43;;;1.86;83.78
79376;BME280;68846;53.150;18.136;2024-02-26T06:06:17;100277.27;;;1.86;83.60
79376;BME280;68846;53.150;18.136;2024-02-26T06:13:20;100274.23;;;1.93;83.93
79376;BME280;68846;53.150;18.136;2024-02-26T06:15:48;100274.14;;;1.96;83.66
79376;BME280;68846;53.150;18.136;2024-02-26T06:18:16;100275.17;;;1.95;83.47
79376;BME280;68846;53.150;18.136;2024-02-26T06:20:43;100280.10;;;1.92;83.45
79376;BME280;68846;53.150;18.136;2024-02-26T06:23:12;100285.83;;;1.87;83.55
79376;BME280;68846;53.150;18.136;2024-02-26T06:25:40;100287.57;;;1.83;83.53
79376;BME280;68846;53.150;18.136;2024-02-26T06:28:10;100291.42;;;1.80;83.38
79376;BME280;68846;53.150;18.136;2024-02-26T06:30:37;100294.01;;;1.79;83.80
79376;BME280;68846;53.150;18.136;2024-02-26T06:33:05;100289.75;;;1.81;83.73
79376;BME280;68846;53.150;18.136;2024-02-26T06:35:35;100291.34;;;1.83;83.54
79376;BME280;68846;53.150;18.136;2024-02-26T06:38:03;100296.20;;;1.86;83.55
79376;BME280;68846;53.150;18.136;2024-02-26T06:40:31;100304.05;;;1.92;83.58
79376;BME280;68846;53.150;18.136;2024-02-26T06:42:59;100302.69;;;1.97;83.55
79376;BME280;68846;53.150;18.136;2024-02-26T06:45:27;100307.36;;;2.01;83.54
79376;BME280;68846;53.150;18.136;2024-02-26T06:47:55;100299.05;;;2.06;83.68
79376;BME280;68846;53.150;18.136;2024-02-26T06:50:24;100301.14;;;2.10;83.53
79376;BME280;68846;53.150;18.136;2024-02-26T06:52:51;100297.92;;;2.13;83.48
79376;BME280;68846;53.150;18.136;2024-02-26T06:55:19;100301.80;;;2.15;83.44
79376;BME280;68846;53.150;18.136;2024-02-26T06:57:47;100302.58;;;2.17;83.38
79376;BME280;68846;53.150;18.136;2024-02-26T07:00:15;100298.04;;;2.11;83.21
79376;BME280;68846;53.150;18.136;2024-02-26T07:02:44;100298.06;;;2.08;83.23
79376;BME280;68846;53.150;18.136;2024-02-26T07:05:11;100297.44;;;2.05;83.40
79376;BME280;68846;53.150;18.136;2024-02-26T07:07:40;100303.02;;;2.05;83.51
79376;BME280;68846;53.150;18.136;2024-02-26T07:10:09;100309.67;;;2.07;83.58
79376;BME280;68846;53.150;18.136;2024-02-26T07:12:37;100309.27;;;2.10;83.63
79376;BME280;68846;53.150;18.136;2024-02-26T07:15:05;100307.84;;;2.09;83.58
79376;BME280;68846;53.150;18.136;2024-02-26T07:17:35;100308.23;;;2.10;83.66
79376;BME280;68846;53.150;18.136;2024-02-26T07:20:04;100307.42;;;2.12;83.73
79376;BME280;68846;53.150;18.136;2024-02-26T07:22:32;100316.23;;;2.15;83.95
79376;BME280;68846;53.150;18.136;2024-02-26T07:24:59;100313.02;;;2.22;84.10
79376;BME280;68846;53.150;18.136;2024-02-26T07:27:27;100313.11;;;2.29;84.06
79376;BME280;68846;53.150;18.136;2024-02-26T07:29:55;100313.56;;;2.36;84.05
79376;BME280;68846;53.150;18.136;2024-02-26T07:32:23;100312.27;;;2.43;83.93
79376;BME280;68846;53.150;18.136;2024-02-26T07:34:50;100313.98;;;2.51;83.80
79376;BME280;68846;53.150;18.136;2024-02-26T07:37:18;100313.16;;;2.58;83.73
79376;BME280;68846;53.150;18.136;2024-02-26T07:39:47;100316.11;;;2.62;84.02
79376;BME280;68846;53.150;18.136;2024-02-26T07:42:15;100320.13;;;2.67;83.99
79376;BME280;68846;53.150;18.136;2024-02-26T07:44:43;100324.27;;;2.71;84.01
79376;BME280;68846;53.150;18.136;2024-02-26T07:47:11;100326.46;;;2.75;84.18
79376;BME280;68846;53.150;18.136;2024-02-26T07:49:40;100326.53;;;2.76;84.10
79376;BME280;68846;53.150;18.136;2024-02-26T07:52:08;100327.83;;;2.78;84.08
79376;BME280;68846;53.150;18.136;2024-02-26T07:54:36;100334.73;;;2.82;84.24
79376;BME280;68846;53.150;18.136;2024-02-26T07:57:04;100333.23;;;2.88;84.32
79376;BME280;68846;53.150;18.136;2024-02-26T07:59:32;100336.43;;;2.95;84.44
79376;BME280;68846;53.150;18.136;2024-02-26T08:02:00;100335.16;;;2.99;84.32
79376;BME280;68846;53.150;18.136;2024-02-26T08:04:30;100336.81;;;3.01;84.35
79376;BME280;68846;53.150;18.136;2024-02-26T08:06:58;100337.08;;;3.03;84.43
79376;BME280;68846;53.150;18.136;2024-02-26T08:09:26;100341.83;;;3.06;84.13
79376;BME280;68846;53.150;18.136;2024-02-26T08:11:54;100342.05;;;3.06;84.24
79376;BME280;68846;53.150;18.136;2024-02-26T08:14:23;100343.47;;;3.07;84.30
79376;BME280;68846;53.150;18.136;2024-02-26T08:16:50;100343.79;;;3.11;84.34
79376;BME280;68846;53.150;18.136;2024-02-26T08:19:19;100345.94;;;3.18;84.63
79376;BME280;68846;53.150;18.136;2024-02-26T08:21:46;100351.60;;;3.26;84.48
79376;BME280;68846;53.150;18.136;2024-02-26T08:24:14;100352.45;;;3.35;84.58
79376;BME280;68846;53.150;18.136;2024-02-26T08:26:42;100350.45;;;3.42;84.58
79376;BME280;68846;53.150;18.136;2024-02-26T08:29:10;100349.41;;;3.48;84.62
79376;BME280;68846;53.150;18.136;2024-02-26T08:31:38;100346.15;;;3.55;84.74
79376;BME280;68846;53.150;18.136;2024-02-26T08:34:05;100345.84;;;3.61;84.80
79376;BME280;68846;53.150;18.136;2024-02-26T08:36:34;100343.81;;;3.67;84.77
79376;BME280;68846;53.150;18.136;2024-02-26T08:39:02;100345.08;;;3.74;84.85
79376;BME280;68846;53.150;18.136;2024-02-26T08:41:30;100339.95;;;3.83;85.18
79376;BME280;68846;53.150;18.136;2024-02-26T08:43:58;100345.45;;;3.91;85.07
79376;BME280;68846;53.150;18.136;2024-02-26T08:46:26;100346.71;;;3.98;85.17
79376;BME280;68846;53.150;18.136;2024-02-26T08:48:54;100351.62;;;4.05;85.48
79376;BME280;68846;53.150;18.136;2024-02-26T08:51:22;100351.47;;;4.11;85.53
79376;BME280;68846;53.150;18.136;2024-02-26T08:53:50;100350.97;;;4.17;85.64
79376;BME280;68846;53.150;18.136;2024-02-26T08:56:18;100356.90;;;4.22;85.55
79376;BME280;68846;53.150;18.136;2024-02-26T08:58:46;100356.39;;;4.28;85.60
79376;BME280;68846;53.150;18.136;2024-02-26T09:01:16;100353.80;;;4.35;85.57
79376;BME280;68846;53.150;18.136;2024-02-26T09:03:45;100351.66;;;4.40;85.81
79376;BME280;68846;53.150;18.136;2024-02-26T09:06:15;100358.98;;;4.45;85.39
79376;BME280;68846;53.150;18.136;2024-02-26T09:08:43;100358.23;;;4.49;85.46
79376;BME280;68846;53.150;18.136;2024-02-26T09:11:13;100360.96;;;4.53;85.57
79376;BME280;68846;53.150;18.136;2024-02-26T09:13:41;100358.95;;;4.55;85.43
79376;BME280;68846;53.150;18.136;2024-02-26T09:16:11;100360.80;;;4.59;85.42
79376;BME280;68846;53.150;18.136;2024-02-26T09:18:39;100366.66;;;4.63;85.40
79376;BME280;68846;53.150;18.136;2024-02-26T09:21:07;100369.02;;;4.66;85.17
79376;BME280;68846;53.150;18.136;2024-02-26T09:23:35;100370.13;;;4.68;85.18
79376;BME280;68846;53.150;18.136;2024-02-26T09:26:05;100371.41;;;4.69;85.11
79376;BME280;68846;53.150;18.136;2024-02-26T09:28:34;100372.66;;;4.71;85.27
79376;BME280;68846;53.150;18.136;2024-02-26T09:31:04;100375.20;;;4.74;85.37
79376;BME280;68846;53.150;18.136;2024-02-26T09:33:35;100376.13;;;4.76;85.29
79376;BME280;68846;53.150;18.136;2024-02-26T09:36:04;100370.96;;;4.79;85.43
79376;BME280;68846;53.150;18.136;2024-02-26T09:38:32;100363.23;;;4.82;85.25
79376;BME280;68846;53.150;18.136;2024-02-26T09:41:05;100364.64;;;4.89;85.10
79376;BME280;68846;53.150;18.136;2024-02-26T09:43:35;100361.01;;;4.96;85.35
79376;BME280;68846;53.150;18.136;2024-02-26T09:46:08;100363.84;;;5.04;85.01
79376;BME280;68846;53.150;18.136;2024-02-26T09:48:37;100365.85;;;5.13;85.53
79376;BME280;68846;53.150;18.136;2024-02-26T09:51:05;100366.82;;;5.23;85.91
79376;BME280;68846;53.150;18.136;2024-02-26T09:53:33;100371.98;;;5.33;86.02
79376;BME280;68846;53.150;18.136;2024-02-26T09:56:04;100376.45;;;5.44;85.98
79376;BME280;68846;53.150;18.136;2024-02-26T09:58:32;100376.67;;;5.52;85.63
79376;BME280;68846;53.150;18.136;2024-02-26T10:01:02;100374.96;;;5.60;85.52
79376;BME280;68846;53.150;18.136;2024-02-26T10:03:41;100374.79;;;5.67;85.11
79376;BME280;68846;53.150;18.136;2024-02-26T10:06:11;100374.42;;;5.73;84.91
79376;BME280;68846;53.150;18.136;2024-02-26T10:08:39;100375.31;;;5.81;84.73
79376;BME280;68846;53.150;18.136;2024-02-26T10:11:07;100374.24;;;5.87;84.95
79376;BME280;68846;53.150;18.136;2024-02-26T10:13:38;100376.76;;;5.95;84.78
79376;BME280;68846;53.150;18.136;2024-02-26T10:16:06;100379.20;;;6.02;84.69
79376;BME280;68846;53.150;18.136;2024-02-26T10:19:24;100377.29;;;6.10;84.71
79376;BME280;68846;53.150;18.136;2024-02-26T10:21:57;100371.76;;;6.20;84.59
79376;BME280;68846;53.150;18.136;2024-02-26T10:24:25;100369.72;;;6.30;84.71
79376;BME280;68846;53.150;18.136;2024-02-26T10:26:55;100369.40;;;6.39;84.42
79376;BME280;68846;53.150;18.136;2024-02-26T10:29:26;100366.96;;;6.48;84.72
79376;BME280;68846;53.150;18.136;2024-02-26T10:31:54;100365.58;;;6.56;84.55
79376;BME280;68846;53.150;18.136;2024-02-26T10:34:22;100365.94;;;6.64;84.28
79376;BME280;68846;53.150;18.136;2024-02-26T10:36:50;100360.86;;;6.73;84.11
79376;BME280;68846;53.150;18.136;2024-02-26T10:39:18;100354.74;;;6.81;83.93
79376;BME280;68846;53.150;18.136;2024-02-26T10:41:46;100355.43;;;6.89;84.05
79376;BME280;68846;53.150;18.136;2024-02-26T10:44:14;100352.98;;;6.98;83.73
79376;BME280;68846;53.150;18.136;2024-02-26T10:46:42;100351.17;;;7.04;83.73
79376;BME280;68846;53.150;18.136;2024-02-26T10:49:15;100355.85;;;7.10;83.52
79376;BME280;68846;53.150;18.136;2024-02-26T10:51:57;100356.17;;;7.17;83.82
79376;BME280;68846;53.150;18.136;2024-02-26T10:54:29;100364.65;;;7.30;84.00
79376;BME280;68846;53.150;18.136;2024-02-26T10:56:58;100364.99;;;7.39;83.34
79376;BME280;68846;53.150;18.136;2024-02-26T10:59:27;100364.61;;;7.46;83.06
79376;BME280;68846;53.150;18.136;2024-02-26T11:01:54;100364.20;;;7.54;82.73
79376;BME280;68846;53.150;18.136;2024-02-26T11:04:25;100365.93;;;7.62;82.96
79376;BME280;68846;53.150;18.136;2024-02-26T11:06:56;100365.71;;;7.69;82.70
79376;BME280;68846;53.150;18.136;2024-02-26T11:09:25;100364.41;;;7.75;82.63
79376;BME280;68846;53.150;18.136;2024-02-26T11:11:54;100359.98;;;7.83;82.38
79376;BME280;68846;53.150;18.136;2024-02-26T11:14:22;100358.21;;;7.92;82.29
79376;BME280;68846;53.150;18.136;2024-02-26T11:16:55;100350.13;;;8.01;82.68
79376;BME280;68846;53.150;18.136;2024-02-26T11:19:24;100343.95;;;8.11;82.21
79376;BME280;68846;53.150;18.136;2024-02-26T11:21:53;100341.62;;;8.19;81.94
79376;BME280;68846;53.150;18.136;2024-02-26T11:24:21;100346.29;;;8.26;81.64
79376;BME280;68846;53.150;18.136;2024-02-26T11:26:53;100348.86;;;8.33;81.82
79376;BME280;68846;53.150;18.136;2024-02-26T11:29:41;100348.51;;;8.43;81.72
79376;BME280;68846;53.150;18.136;2024-02-26T11:32:11;100346.30;;;8.49;81.27
79376;BME280;68846;53.150;18.136;2024-02-26T11:34:40;100337.96;;;8.56;81.23
79376;BME280;68846;53.150;18.136;2024-02-26T11:37:14;100333.66;;;8.63;81.01
79376;BME280;68846;53.150;18.136;2024-02-26T11:39:43;100336.55;;;8.69;81.02
79376;BME280;68846;53.150;18.136;2024-02-26T11:42:16;100340.66;;;8.74;81.14
79376;BME280;68846;53.150;18.136;2024-02-26T11:44:44;100347.25;;;8.80;80.79
79376;BME280;68846;53.150;18.136;2024-02-26T11:47:18;100350.02;;;8.91;81.02
79376;BME280;68846;53.150;18.136;2024-02-26T11:49:47;100352.45;;;9.04;80.81
79376;BME280;68846;53.150;18.136;2024-02-26T11:52:16;100351.39;;;9.19;80.39
79376;BME280;68846;53.150;18.136;2024-02-26T11:54:57;100348.88;;;9.30;80.22
79376;BME280;68846;53.150;18.136;2024-02-26T11:57:30;100345.09;;;9.37;80.18
79376;BME280;68846;53.150;18.136;2024-02-26T12:02:44;100344.67;;;9.47;79.84
79376;BME280;68846;53.150;18.136;2024-02-26T12:05:19;100345.05;;;9.52;79.36
79376;BME280;68846;53.150;18.136;2024-02-26T12:08:12;100343.33;;;9.55;79.28
79376;BME280;68846;53.150;18.136;2024-02-26T12:10:41;100344.27;;;9.60;79.49
79376;BME280;68846;53.150;18.136;2024-02-26T12:13:12;100347.63;;;9.63;79.33
79376;BME280;68846;53.150;18.136;2024-02-26T12:15:57;100342.20;;;9.65;79.40
79376;BME280;68846;53.150;18.136;2024-02-26T12:18:25;100343.65;;;9.71;78.95
79376;BME280;68846;53.150;18.136;2024-02-26T12:20:59;100344.40;;;9.76;79.22
79376;BME280;68846;53.150;18.136;2024-02-26T12:23:30;100342.88;;;9.82;79.01
79376;BME280;68846;53.150;18.136;2024-02-26T12:25:59;100342.06;;;9.91;78.87
79376;BME280;68846;53.150;18.136;2024-02-26T12:28:29;100339.83;;;9.98;78.77
79376;BME280;68846;53.150;18.136;2024-02-26T12:30:58;100338.14;;;10.06;78.60
79376;BME280;68846;53.150;18.136;2024-02-26T12:33:28;100336.27;;;10.15;78.51
79376;BME280;68846;53.150;18.136;2024-02-26T12:35:56;100339.69;;;10.24;78.22
79376;BME280;68846;53.150;18.136;2024-02-26T12:38:27;100335.16;;;10.29;77.78
79376;BME280;68846;53.150;18.136;2024-02-26T12:40:55;100333.79;;;10.34;77.82
79376;BME280;68846;53.150;18.136;2024-02-26T12:43:23;100332.05;;;10.38;77.82
79376;BME280;68846;53.150;18.136;2024-02-26T12:45:50;100328.38;;;10.42;77.65
79376;BME280;68846;53.150;18.136;2024-02-26T12:48:18;100327.17;;;10.45;77.83
79376;BME280;68846;53.150;18.136;2024-02-26T12:50:46;100322.96;;;10.50;77.72
79376;BME280;68846;53.150;18.136;2024-02-26T12:53:44;100321.05;;;10.54;77.53
79376;BME280;68846;53.150;18.136;2024-02-26T12:56:13;100323.71;;;10.59;77.07
79376;BME280;68846;53.150;18.136;2024-02-26T12:58:41;100321.63;;;10.64;76.98
79376;BME280;68846;53.150;18.136;2024-02-26T13:01:15;100322.19;;;10.69;76.33
79376;BME280;68846;53.150;18.136;2024-02-26T13:03:44;100321.86;;;10.74;76.38
79376;BME280;68846;53.150;18.136;2024-02-26T13:06:12;100316.94;;;10.79;76.38
79376;BME280;68846;53.150;18.136;2024-02-26T13:08:40;100316.45;;;10.88;75.71
79376;BME280;68846;53.150;18.136;2024-02-26T13:11:08;100320.70;;;10.95;75.96
79376;BME280;68846;53.150;18.136;2024-02-26T13:13:36;100324.43;;;11.02;75.75